Time;durP1;ratioP1;P1;durP2;ratioP2;P2;SDS_P1;SDS_P2;PMS_P1;PMS_P2;Temp;Humidity;BMP_temperature;BMP_pressure;BME280_temperature;BME280_humidity;BME280_pressure;Samples;Min_cycle;Max_cycle;Signal;HPM_P1;HPM_P2
2024/01/21 00:05:02;;;;;;;46.17;5.38;;;;;;;19.50;47.47;100820.34;10575088;28;20476;-81
2024/01/21 00:10:24;;;;;;;68.25;8.88;;;;;;;19.83;46.63;100826.81;10574732;28;20044;-81
2024/01/21 00:15:49;;;;;;;65.10;9.20;;;;;;;19.76;47.02;100843.94;10576999;28;20047;-81
2024/01/21 00:21:11;;;;;;;59.13;8.00;;;;;;;19.64;48.07;100835.25;10568852;28;20550;-85
2024/01/21 00:26:35;;;;;;;62.67;11.23;;;;;;;19.66;47.36;100825.41;10581489;27;20044;-82
2024/01/21 00:32:00;;;;;;;56.67;10.48;;;;;;;19.37;47.10;100789.34;10556675;28;20079;-84
2024/01/21 00:37:22;;;;;;;56.75;8.63;;;;;;;18.63;49.34;100727.47;10581852;28;20422;-83
2024/01/21 00:42:45;;;;;;;46.28;7.43;;;;;;;19.01;43.61;100747.25;10595351;27;20158;-88
2024/01/21 00:48:11;;;;;;;52.55;7.80;;;;;;;19.20;40.36;100680.88;10567195;28;20075;-89
2024/01/21 00:53:33;;;;;;;55.90;7.25;;;;;;;19.65;37.43;100668.28;10568519;28;20055;-89
2024/01/21 00:58:57;;;;;;;45.70;7.45;;;;;;;19.87;35.19;100610.63;10582285;28;20048;-90
2024/01/21 01:04:20;;;;;;;49.67;6.75;;;;;;;20.14;32.71;100561.66;10587872;27;20044;-89
2024/01/21 01:09:43;;;;;;;44.05;5.90;;;;;;;20.45;31.17;100537.59;10568230;27;20051;-87
2024/01/21 01:15:06;;;;;;;30.33;3.88;;;;;;;20.78;29.97;100535.72;10580131;28;20058;-88
2024/01/21 01:20:30;;;;;;;35.05;4.97;;;;;;;21.09;29.88;100575.94;10581973;28;20457;-87
2024/01/21 01:25:53;;;;;;;32.25;4.38;;;;;;;21.91;26.87;100608.25;10565420;28;20046;-88
2024/01/21 01:31:18;;;;;;;37.08;6.13;;;;;;;21.95;26.36;100612.59;10565958;28;20109;-88
2024/01/21 01:36:51;;;;;;;43.72;6.00;;;;;;;21.63;27.96;100624.41;10561807;28;20051;-88
2024/01/21 01:42:14;;;;;;;46.17;6.85;;;;;;;21.25;29.24;100620.22;10580084;28;20043;-83
2024/01/21 01:47:36;;;;;;;37.85;5.80;;;;;;;20.96;31.21;100601.38;10579956;27;20040;-83
2024/01/21 01:53:01;;;;;;;49.65;6.25;;;;;;;20.69;33.77;100595.91;10563263;27;20124;-84
2024/01/21 01:58:27;;;;;;;38.00;7.00;;;;;;;20.48;36.95;100575.03;10566274;28;20047;-84
2024/01/21 02:03:50;;;;;;;27.30;4.75;;;;;;;20.23;39.52;100577.50;10577482;27;20054;-83
2024/01/21 02:09:17;;;;;;;25.33;4.13;;;;;;;20.39;41.10;100599.44;10578834;28;20540;-83
2024/01/21 02:14:40;;;;;;;14.27;2.65;;;;;;;20.72;42.20;100653.09;10564750;28;20051;-83
2024/01/21 02:20:03;;;;;;;27.42;3.95;;;;;;;20.80;43.05;100618.88;10577174;27;20047;-82
2024/01/21 02:25:27;;;;;;;46.55;16.20;;;;;;;20.77;43.47;100622.50;10563855;28;20048;-85
2024/01/21 02:30:49;;;;;;;22.80;4.20;;;;;;;20.65;44.56;100567.41;10572844;28;20718;-87
2024/01/21 02:36:11;;;;;;;29.70;4.53;;;;;;;20.56;45.98;100610.56;10577251;27;20055;-82
2024/01/21 02:41:36;;;;;;;24.65;5.20;;;;;;;20.53;47.05;100608.00;10574531;27;20048;-82
2024/01/21 02:46:58;;;;;;;23.77;4.03;;;;;;;20.20;49.54;100611.56;10577203;28;20430;-83
2024/01/21 02:52:21;;;;;;;23.60;5.80;;;;;;;20.15;51.33;100606.28;10549588;28;20040;-82
2024/01/21 02:57:45;;;;;;;20.45;4.43;;;;;;;20.18;51.90;100629.47;10563904;28;20101;-83
2024/01/21 03:03:10;;;;;;;23.95;2.78;;;;;;;20.18;51.85;100646.44;10577179;28;20063;-82
2024/01/21 03:08:33;;;;;;;19.15;3.13;;;;;;;20.29;53.12;100654.19;10576836;28;20046;-82
2024/01/21 03:13:56;;;;;;;17.63;4.50;;;;;;;20.30;55.22;100662.19;10591941;27;20600;-83
2024/01/21 03:19:19;;;;;;;13.95;2.40;;;;;;;20.14;59.48;100659.97;10549876;28;20043;-84
2024/01/21 03:24:41;;;;;;;18.38;2.83;;;;;;;19.97;64.33;100646.09;10575883;28;20136;-84
2024/01/21 03:30:07;;;;;;;26.75;5.45;;;;;;;19.79;73.14;100613.47;10574903;27;20044;-85
2024/01/21 03:35:31;;;;;;;21.35;3.53;;;;;;;19.84;74.44;100591.94;10570515;28;20048;-84
2024/01/21 03:40:53;;;;;;;25.83;5.38;;;;;;;19.71;79.40;100561.88;10561977;28;20071;-84
2024/01/21 03:46:18;;;;;;;22.48;3.65;;;;;;;19.71;82.17;100572.59;10560687;28;20044;-83
2024/01/21 03:51:40;;;;;;;16.13;3.50;;;;;;;19.86;83.62;100557.94;10561496;28;20032;-83
2024/01/21 03:57:02;;;;;;;30.13;4.55;;;;;;;19.73;90.41;100560.06;10561395;28;20665;-82
2024/01/21 04:02:27;;;;;;;14.75;3.05;;;;;;;19.78;89.02;100578.69;10575293;28;20101;-84
2024/01/21 04:07:49;;;;;;;23.65;3.45;;;;;;;19.78;92.89;100602.78;10560774;28;20048;-81
2024/01/21 04:13:11;;;;;;;18.27;3.17;;;;;;;19.59;93.77;100609.53;10566634;28;20097;-81
2024/01/21 04:18:37;;;;;;;25.73;3.80;;;;;;;19.64;94.14;100650.47;10560428;28;20036;-85
2024/01/21 04:24:00;;;;;;;22.13;4.72;;;;;;;19.52;93.57;100648.06;10553841;28;20051;-85
2024/01/21 04:29:22;;;;;;;20.02;3.53;;;;;;;19.26;97.02;100632.56;10568890;28;20047;-86
2024/01/21 04:34:49;;;;;;;19.38;3.55;;;;;;;19.29;97.97;100651.25;10560624;28;20126;-84
2024/01/21 04:40:13;;;;;;;18.23;3.42;;;;;;;19.41;99.44;100665.25;10560027;28;20388;-85
2024/01/21 04:45:35;;;;;;;17.00;3.60;;;;;;;19.43;100.00;100681.25;10559667;28;20066;-83
2024/01/21 04:50:59;;;;;;;22.23;4.30;;;;;;;19.54;100.00;100705.16;10559992;28;20048;-85
2024/01/21 04:56:23;;;;;;;14.27;3.42;;;;;;;19.32;100.00;100710.94;10573841;28;20419;-85
2024/01/21 05:01:49;;;;;;;70.95;29.10;;;;;;;19.11;100.00;100719.41;10566524;28;20047;-85
2024/01/21 05:07:13;;;;;;;22.73;6.80;;;;;;;19.01;100.00;100726.75;10559824;27;20036;-83
2024/01/21 05:12:35;;;;;;;23.15;4.20;;;;;;;18.93;100.00;100727.78;10581875;27;20043;-85
2024/01/21 05:17:58;;;;;;;26.85;4.47;;;;;;;18.78;100.00;100718.25;10570273;28;20044;-85
2024/01/21 05:23:22;;;;;;;18.73;3.63;;;;;;;18.46;100.00;100720.59;10575443;28;20063;-85
2024/01/21 05:28:45;;;;;;;18.13;3.30;;;;;;;18.46;100.00;100723.28;10581080;27;20510;-84
2024/01/21 05:34:08;;;;;;;23.38;4.18;;;;;;;18.18;100.00;100736.22;10580757;28;20047;-85
2024/01/21 05:39:32;;;;;;;21.02;3.55;;;;;;;18.05;100.00;100742.69;10580417;28;20055;-84
2024/01/21 05:44:55;;;;;;;22.30;3.92;;;;;;;17.86;100.00;100736.69;10566317;28;20546;-85
2024/01/21 05:50:18;;;;;;;18.98;3.97;;;;;;;17.81;100.00;100749.25;10573754;27;20047;-84
2024/01/21 05:55:42;;;;;;;17.92;4.68;;;;;;;17.74;100.00;100768.91;10579211;28;20104;-85
2024/01/21 06:01:05;;;;;;;22.55;3.67;;;;;;;17.61;100.00;100778.00;10579615;28;20060;-85
2024/01/21 06:06:28;;;;;;;13.77;3.80;;;;;;;17.86;100.00;100800.78;10580183;28;20162;-85
2024/01/21 06:11:52;;;;;;;20.88;3.17;;;;;;;18.21;100.00;100817.22;10574075;28;20082;-85
2024/01/21 06:17:14;;;;;;;20.77;3.55;;;;;;;19.54;100.00;100826.56;10561612;28;20519;-85
2024/01/21 06:22:37;;;;;;;19.40;3.58;;;;;;;21.66;100.00;100828.50;10569687;27;20496;-84
2024/01/21 06:28:03;;;;;;;12.55;2.97;;;;;;;22.98;86.17;100837.81;10578591;28;20151;-84
2024/01/21 06:33:27;;;;;;;15.60;4.43;;;;;;;23.72;77.75;100830.72;10577987;27;20122;-85
2024/01/21 06:38:49;;;;;;;26.08;6.53;;;;;;;23.44;78.81;100839.78;10576879;28;20043;-84
2024/01/21 06:44:18;;;;;;;16.27;4.47;;;;;;;24.28;70.73;100849.28;10591911;27;20492;-85
2024/01/21 06:49:48;;;;;;;24.65;8.63;;;;;;;25.61;61.16;100845.44;10552842;28;20047;-85
2024/01/21 06:55:11;;;;;;;20.48;9.32;;;;;;;26.67;54.19;100870.19;10577618;27;20058;-85
2024/01/21 07:00:35;;;;;;;33.50;11.70;;;;;;;27.25;51.42;100876.28;10559422;28;20043;-85
2024/01/21 07:05:57;;;;;;;22.17;7.90;;;;;;;27.67;49.65;100886.75;10568833;28;20096;-84
2024/01/21 07:11:20;;;;;;;22.77;7.85;;;;;;;27.62;49.16;100869.84;10560531;28;20055;-85
2024/01/21 07:16:44;;;;;;;21.30;6.13;;;;;;;28.27;47.24;100870.84;10568923;27;20105;-85
2024/01/21 07:22:06;;;;;;;25.73;8.18;;;;;;;28.69;45.39;100883.81;10561417;28;20048;-85
2024/01/21 07:27:29;;;;;;;25.15;6.28;;;;;;;30.07;41.47;100882.75;10572631;27;20074;-85
2024/01/21 07:32:53;;;;;;;28.58;4.50;;;;;;;31.16;38.58;100882.84;10560972;28;20096;-85
2024/01/21 07:38:15;;;;;;;21.70;5.00;;;;;;;32.03;37.26;100891.31;10573978;27;20055;-84
2024/01/21 07:43:38;;;;;;;24.70;4.70;;;;;;;32.29;35.38;100904.00;10561155;28;20055;-83
2024/01/21 07:49:02;;;;;;;21.42;5.70;;;;;;;32.54;36.88;100918.59;10590131;27;20046;-83
2024/01/21 07:54:24;;;;;;;30.08;5.97;;;;;;;28.42;46.84;100937.00;10557020;28;20058;-84
2024/01/21 07:59:47;;;;;;;32.05;7.80;;;;;;;25.96;66.97;100946.66;10585443;27;20055;-85
2024/01/21 08:05:11;;;;;;;31.30;10.07;;;;;;;24.51;86.23;100946.41;10539902;28;20136;-85
2024/01/21 08:10:34;;;;;;;36.40;6.78;;;;;;;23.50;97.54;100965.38;10560685;28;20047;-85
2024/01/21 08:15:56;;;;;;;29.58;8.57;;;;;;;22.85;100.00;100960.31;10596006;28;20048;-86
2024/01/21 08:21:20;;;;;;;36.35;10.75;;;;;;;22.77;100.00;100969.59;10574966;28;20055;-87
2024/01/21 08:26:46;;;;;;;25.95;7.47;;;;;;;22.80;100.00;100969.47;10588488;28;20054;-87
2024/01/21 08:32:08;;;;;;;36.10;16.25;;;;;;;23.64;100.00;100975.69;10574291;28;20043;-88
2024/01/21 08:37:32;;;;;;;32.13;10.10;;;;;;;24.38;94.02;100991.88;10581811;27;20088;-86
2024/01/21 08:42:55;;;;;;;34.05;8.48;;;;;;;23.69;99.96;100998.00;10551378;28;20067;-86
2024/01/21 08:48:17;;;;;;;36.90;13.63;;;;;;;23.48;100.00;100991.53;10566435;28;20070;-87
2024/01/21 08:53:41;;;;;;;31.83;7.03;;;;;;;23.40;100.00;100990.84;10580579;27;20446;-85
2024/01/21 08:59:04;;;;;;;44.25;14.93;;;;;;;23.10;100.00;100995.47;10557636;27;20059;-84
2024/01/21 09:04:29;;;;;;;31.42;8.20;;;;;;;22.23;100.00;100995.38;10566660;28;20051;-84
2024/01/21 09:09:54;;;;;;;21.15;5.25;;;;;;;21.76;100.00;100995.78;10568753;28;20051;-85
2024/01/21 09:15:21;;;;;;;27.45;12.02;;;;;;;21.59;100.00;100993.53;10581943;28;20040;-85
2024/01/21 09:20:43;;;;;;;32.28;8.38;;;;;;;21.82;100.00;100992.91;10582038;28;20046;-85
2024/01/21 09:26:08;;;;;;;22.77;5.40;;;;;;;22.09;100.00;100992.19;10580836;28;20560;-85
2024/01/21 09:31:31;;;;;;;28.73;7.40;;;;;;;21.67;100.00;100986.16;10580663;28;20097;-84
2024/01/21 09:36:54;;;;;;;21.10;4.75;;;;;;;21.65;100.00;100974.56;10577719;28;20412;-81
2024/01/21 09:42:20;;;;;;;27.95;7.68;;;;;;;21.54;100.00;100973.94;10575568;28;20535;-86
2024/01/21 09:47:45;;;;;;;22.58;5.60;;;;;;;21.51;100.00;100976.75;10556970;28;20044;-87
2024/01/21 09:53:07;;;;;;;29.15;7.95;;;;;;;21.59;100.00;100992.66;10564933;28;20043;-79
2024/01/21 09:58:34;;;;;;;26.00;6.15;;;;;;;21.32;100.00;100984.38;10561288;28;20113;-78
2024/01/21 10:03:58;;;;;;;21.88;5.35;;;;;;;21.19;100.00;100982.91;10571949;27;20504;-87
2024/01/21 10:09:22;;;;;;;21.73;4.80;;;;;;;21.21;100.00;100975.69;10563464;28;20510;-83
2024/01/21 10:14:46;;;;;;;21.30;3.72;;;;;;;21.36;100.00;100967.25;10574329;28;20063;-85
2024/01/21 10:20:12;;;;;;;23.40;4.60;;;;;;;21.46;100.00;100970.59;10571044;28;20054;-84
2024/01/21 10:25:38;;;;;;;22.30;3.95;;;;;;;21.05;100.00;100979.66;10561972;28;20058;-88
2024/01/21 10:31:02;;;;;;;21.13;4.70;;;;;;;20.56;100.00;100966.47;10566720;28;20050;-88
2024/01/21 10:36:27;;;;;;;24.92;4.20;;;;;;;20.30;100.00;100983.09;10565110;28;20044;-85
2024/01/21 10:41:51;;;;;;;26.65;4.90;;;;;;;20.17;100.00;100970.84;10561006;28;20138;-85
2024/01/21 10:47:17;;;;;;;15.65;4.63;;;;;;;20.19;100.00;100977.94;10562406;28;20411;-86
2024/01/21 10:52:44;;;;;;;21.27;4.57;;;;;;;20.09;100.00;100970.09;10576041;27;20048;-84
2024/01/21 10:58:07;;;;;;;20.90;6.28;;;;;;;20.20;100.00;100970.78;10589209;27;20047;-87
2024/01/21 11:03:33;;;;;;;18.58;5.25;;;;;;;20.26;100.00;100968.88;10563066;28;20097;-82
2024/01/21 11:08:57;;;;;;;19.15;5.38;;;;;;;20.39;100.00;100971.31;10561108;28;20469;-81
2024/01/21 11:14:33;;;;;;;23.48;4.57;;;;;;;20.65;100.00;100967.16;10558893;28;20043;-80
2024/01/21 11:19:59;;;;;;;16.20;4.18;;;;;;;20.54;100.00;100971.88;10574441;28;20141;-80
2024/01/21 11:25:34;;;;;;;22.85;4.20;;;;;;;20.15;100.00;100967.34;10573608;28;20035;-81
2024/01/21 11:31:03;;;;;;;16.73;3.42;;;;;;;19.91;100.00;100974.03;10563079;27;20070;-81
2024/01/21 11:36:27;;;;;;;19.43;4.13;;;;;;;19.72;100.00;100986.91;10577597;27;20053;-81
2024/01/21 11:41:51;;;;;;;19.98;3.95;;;;;;;19.54;100.00;100989.03;10559365;28;20048;-82
2024/01/21 11:47:13;;;;;;;20.90;4.28;;;;;;;19.68;100.00;100989.69;10566345;28;20077;-84
2024/01/21 11:52:38;;;;;;;13.73;4.18;;;;;;;19.79;100.00;100977.84;10561789;28;20040;-85
2024/01/21 11:58:01;;;;;;;19.42;4.38;;;;;;;19.90;100.00;100983.88;10560008;28;20058;-85
2024/01/21 12:03:23;;;;;;;21.00;3.72;;;;;;;19.70;100.00;100980.69;10588919;27;20055;-84
2024/01/21 12:08:48;;;;;;;20.55;4.55;;;;;;;19.50;100.00;100993.53;10572949;28;20075;-83
2024/01/21 12:14:13;;;;;;;24.10;5.45;;;;;;;19.33;100.00;100991.13;10569194;28;20082;-88
2024/01/21 12:19:36;;;;;;;23.05;6.18;;;;;;;19.30;100.00;101006.34;10559509;28;20051;-85
2024/01/21 12:24:59;;;;;;;29.73;14.63;;;;;;;19.34;100.00;100992.03;10519456;28;20047;-78
2024/01/21 12:30:26;;;;;;;23.15;5.25;;;;;;;19.19;100.00;101005.66;10571882;28;20062;-82
2024/01/21 12:35:48;;;;;;;24.27;6.65;;;;;;;19.00;100.00;101005.03;10575146;28;20517;-90
2024/01/21 12:41:13;;;;;;;21.75;4.55;;;;;;;18.96;100.00;101004.22;10577994;28;20083;-84
2024/01/21 12:46:37;;;;;;;17.02;3.90;;;;;;;18.86;100.00;101005.25;10544268;28;20052;-86
2024/01/21 12:51:59;;;;;;;20.63;6.60;;;;;;;18.78;100.00;101011.59;10574195;28;20508;-82
2024/01/21 12:57:23;;;;;;;25.25;8.05;;;;;;;18.52;100.00;101019.94;10575695;28;20051;-83
2024/01/21 13:02:47;;;;;;;24.85;6.32;;;;;;;18.32;100.00;101022.84;10574077;28;20483;-84
2024/01/21 13:08:11;;;;;;;23.65;4.15;;;;;;;17.79;100.00;101043.03;10571954;28;20112;-82
2024/01/21 13:13:35;;;;;;;43.72;19.88;;;;;;;17.41;100.00;101040.66;10556379;28;20052;-82
2024/01/21 13:18:58;;;;;;;27.00;9.55;;;;;;;17.24;100.00;101045.25;10571681;28;20078;-86
2024/01/21 13:24:21;;;;;;;19.40;4.90;;;;;;;17.25;100.00;101044.34;10563938;27;20050;-91
2024/01/21 13:35:28;;;;;;;15.93;4.65;;;;;;;17.26;100.00;101056.81;10559918;28;20092;-81
2024/01/21 13:40:51;;;;;;;19.02;4.65;;;;;;;17.09;100.00;101070.25;10582799;27;20491;-80
2024/01/21 13:46:15;;;;;;;18.67;4.75;;;;;;;16.81;100.00;101070.38;10548404;27;20055;-83
2024/01/21 13:51:38;;;;;;;18.40;5.45;;;;;;;16.69;100.00;101080.22;10563100;27;20666;-85
2024/01/21 13:57:02;;;;;;;15.32;4.53;;;;;;;16.79;100.00;101072.19;10560549;28;20058;-85
2024/01/21 14:02:27;;;;;;;20.33;4.43;;;;;;;16.79;100.00;101080.19;10561353;27;20130;-81
2024/01/21 14:07:49;;;;;;;23.65;4.82;;;;;;;16.39;100.00;101082.97;10576519;28;20403;-82
2024/01/21 14:13:12;;;;;;;27.08;6.43;;;;;;;16.24;100.00;101091.00;10562829;27;20065;-83
2024/01/21 14:18:36;;;;;;;19.90;4.63;;;;;;;16.20;100.00;101089.25;10576733;28;20044;-79
2024/01/21 14:23:59;;;;;;;20.38;7.40;;;;;;;15.99;100.00;101094.63;10574341;28;20044;-80
2024/01/21 14:29:32;;;;;;;16.95;4.00;;;;;;;15.94;100.00;101084.88;10575802;28;20379;-84
2024/01/21 14:34:56;;;;;;;17.50;5.28;;;;;;;15.98;100.00;101109.69;10578083;28;20173;-84
2024/01/21 14:40:19;;;;;;;31.05;16.00;;;;;;;16.00;100.00;101113.25;10559207;28;20048;-83
2024/01/21 14:45:41;;;;;;;35.15;19.23;;;;;;;16.08;100.00;101122.09;10561998;28;20044;-83
2024/01/21 14:51:05;;;;;;;36.55;17.33;;;;;;;16.02;100.00;101108.78;10562147;28;20052;-82
2024/01/21 14:56:28;;;;;;;19.33;7.35;;;;;;;16.00;100.00;101121.25;10570877;27;20048;-83
2024/01/21 15:01:51;;;;;;;19.27;10.00;;;;;;;16.05;100.00;101129.22;10599104;27;20423;-81
2024/01/21 15:07:15;;;;;;;40.00;19.23;;;;;;;16.25;100.00;101138.97;10570024;27;20062;-80
2024/01/21 15:12:38;;;;;;;24.85;7.55;;;;;;;16.32;100.00;101142.50;10545200;28;20044;-79
2024/01/21 15:18:00;;;;;;;32.88;13.77;;;;;;;16.33;100.00;101131.84;10589714;27;20063;-83
2024/01/21 15:23:24;;;;;;;36.10;17.83;;;;;;;16.40;100.00;101132.72;10561622;28;20052;-79
2024/01/21 15:28:47;;;;;;;20.85;7.07;;;;;;;16.33;100.00;101150.50;10553782;28;20042;-77
2024/01/21 15:34:09;;;;;;;19.15;9.40;;;;;;;16.30;100.00;101149.59;10559901;28;20073;-79
2024/01/21 15:39:33;;;;;;;15.40;4.97;;;;;;;16.39;100.00;101156.72;10561046;28;20051;-80
2024/01/21 15:44:56;;;;;;;22.90;5.28;;;;;;;16.47;100.00;101161.16;10552701;28;20122;-85
2024/01/21 15:50:19;;;;;;;21.85;13.13;;;;;;;16.44;100.00;101181.56;10569470;27;20121;-86
2024/01/21 15:55:43;;;;;;;24.40;9.38;;;;;;;16.57;100.00;101185.97;10553554;28;20054;-87
2024/01/21 16:01:05;;;;;;;15.27;7.68;;;;;;;16.63;100.00;101176.22;10571432;28;20070;-81
2024/01/21 16:06:29;;;;;;;18.80;6.45;;;;;;;16.50;100.00;101195.78;10573542;28;20034;-89
2024/01/21 16:11:53;;;;;;;14.98;5.28;;;;;;;16.09;100.00;101202.91;10558341;28;20116;-79
2024/01/21 16:17:15;;;;;;;21.83;8.77;;;;;;;15.90;100.00;101199.34;10576046;28;20044;-79
2024/01/21 16:22:38;;;;;;;21.10;6.88;;;;;;;15.92;100.00;101233.09;10563929;28;20120;-78
2024/01/21 16:28:02;;;;;;;31.75;11.40;;;;;;;15.94;100.00;101225.09;10561388;28;20058;-83
2024/01/21 16:33:24;;;;;;;21.23;9.48;;;;;;;16.01;100.00;101244.63;10572471;28;20546;-82
2024/01/21 16:38:47;;;;;;;17.88;5.72;;;;;;;16.10;100.00;101240.19;10565506;28;20055;-83
2024/01/21 16:44:11;;;;;;;21.25;6.60;;;;;;;16.22;100.00;101247.28;10568963;28;20051;-80
2024/01/21 16:49:36;;;;;;;20.30;7.90;;;;;;;16.32;100.00;101273.97;10571570;28;20048;-78
2024/01/21 16:54:58;;;;;;;30.02;19.08;;;;;;;16.34;100.00;101274.81;10556810;28;20562;-80
2024/01/21 17:00:27;;;;;;;29.83;14.63;;;;;;;16.45;100.00;101293.50;10581319;28;20046;-83
2024/01/21 17:05:49;;;;;;;29.15;15.38;;;;;;;16.43;100.00;101289.94;10566627;27;20059;-80
2024/01/21 17:11:19;;;;;;;27.05;18.48;;;;;;;16.21;100.00;101289.03;10544756;28;20048;-83
2024/01/21 17:17:12;;;;;;;24.17;16.67;;;;;;;16.05;100.00;101297.91;10550005;28;20089;-80
2024/01/21 17:22:43;;;;;;;28.30;17.05;;;;;;;15.69;100.00;101308.44;10491550;28;20480;-81
2024/01/21 17:28:07;;;;;;;24.83;12.98;;;;;;;15.42;100.00;101311.88;10454106;28;20067;-79
2024/01/21 17:33:30;;;;;;;28.40;10.35;;;;;;;15.38;100.00;101313.63;10474319;28;20075;-79
2024/01/21 17:38:54;;;;;;;33.38;22.20;;;;;;;15.42;100.00;101318.09;10469389;28;20053;-80
2024/01/21 17:44:17;;;;;;;43.47;25.42;;;;;;;15.42;100.00;101336.72;10468232;28;20118;-80
2024/01/21 17:49:39;;;;;;;26.83;15.88;;;;;;;15.47;100.00;101326.97;10457599;28;20055;-80
2024/01/21 17:55:04;;;;;;;21.42;12.98;;;;;;;15.46;100.00;101334.94;10579366;27;20047;-82
2024/01/21 18:00:26;;;;;;;17.85;9.93;;;;;;;15.57;100.00;101335.91;10583330;27;20081;-82
2024/01/21 18:05:49;;;;;;;25.00;13.75;;;;;;;15.37;100.00;101338.44;10570184;27;20104;-83
2024/01/21 18:11:13;;;;;;;24.98;16.83;;;;;;;15.41;100.00;101355.31;10567675;27;20047;-81
2024/01/21 18:16:35;;;;;;;30.20;21.92;;;;;;;15.41;100.00;101356.22;10566919;28;20051;-84
2024/01/21 18:21:59;;;;;;;23.45;8.77;;;;;;;15.31;100.00;101356.13;10581297;28;20051;-83
2024/01/21 18:27:24;;;;;;;20.75;11.95;;;;;;;15.15;100.00;101363.16;10565340;27;20134;-80
2024/01/21 18:32:46;;;;;;;19.27;10.13;;;;;;;14.98;100.00;101364.78;10592911;27;20043;-81
2024/01/21 18:38:09;;;;;;;29.75;17.25;;;;;;;14.81;100.00;101388.59;10580422;28;20047;-82
2024/01/21 18:43:36;;;;;;;21.42;10.43;;;;;;;14.81;100.00;101383.28;10580042;28;20164;-81
2024/01/21 18:49:00;;;;;;;26.63;17.73;;;;;;;14.68;100.00;101389.38;10579087;27;20507;-81
2024/01/21 18:54:23;;;;;;;24.48;10.60;;;;;;;14.65;100.00;101392.88;10565297;28;20046;-81
2024/01/21 18:59:49;;;;;;;36.47;18.88;;;;;;;14.66;100.00;101415.03;10565876;28;20047;-81
2024/01/21 19:05:12;;;;;;;34.00;17.70;;;;;;;14.56;100.00;101394.56;10587957;27;20042;-80
2024/01/21 19:10:35;;;;;;;23.10;10.15;;;;;;;14.37;100.00;101420.03;10550411;28;20040;-79
2024/01/21 19:15:59;;;;;;;36.00;9.90;;;;;;;14.33;100.00;101412.88;10567119;28;20048;-82
2024/01/21 19:21:26;;;;;;;22.45;10.73;;;;;;;14.27;100.00;101434.06;10537907;28;20044;-82
2024/01/21 19:26:48;;;;;;;17.30;5.55;;;;;;;14.32;100.00;101438.56;10552737;28;20585;-82
2024/01/21 19:32:12;;;;;;;23.85;6.72;;;;;;;14.44;100.00;101416.56;10550713;28;20154;-82
2024/01/21 19:37:35;;;;;;;18.63;7.25;;;;;;;14.63;100.00;101436.28;10557755;28;20056;-83
2024/01/21 19:42:57;;;;;;;26.17;8.40;;;;;;;14.73;100.00;101438.13;10552548;27;20047;-81
2024/01/21 19:48:21;;;;;;;22.38;9.75;;;;;;;14.78;100.00;101447.03;10560980;28;20058;-80
2024/01/21 19:53:45;;;;;;;19.08;7.28;;;;;;;14.89;100.00;101433.84;10578564;27;20043;-80
2024/01/21 19:59:07;;;;;;;24.95;8.90;;;;;;;14.89;100.00;101432.09;10561036;27;20051;-81
2024/01/21 20:04:31;;;;;;;18.00;6.47;;;;;;;14.98;100.00;101449.88;10575412;28;20051;-80
2024/01/21 20:09:54;;;;;;;24.17;10.13;;;;;;;15.01;100.00;101442.81;10565688;28;20055;-80
2024/01/21 20:15:19;;;;;;;29.15;9.07;;;;;;;15.13;100.00;101445.56;10566538;28;20108;-81
2024/01/21 20:20:44;;;;;;;19.88;7.18;;;;;;;15.12;100.00;101427.84;10550476;28;20499;-80
2024/01/21 20:26:07;;;;;;;20.63;6.60;;;;;;;15.00;100.00;101449.00;10560168;28;20044;-81
2024/01/21 20:31:30;;;;;;;23.35;7.55;;;;;;;14.92;100.00;101455.13;10572760;27;20487;-80
2024/01/21 20:36:54;;;;;;;14.85;5.82;;;;;;;14.83;100.00;101455.97;10574871;27;20150;-80
2024/01/21 20:42:16;;;;;;;20.15;5.30;;;;;;;14.70;100.00;101452.25;10574722;28;20487;-80
2024/01/21 20:47:39;;;;;;;15.23;6.22;;;;;;;14.50;100.00;101467.16;10577520;28;20054;-80
2024/01/21 20:53:03;;;;;;;21.08;6.60;;;;;;;14.54;100.00;101457.44;10560488;28;20048;-80
2024/01/21 20:58:26;;;;;;;15.45;5.18;;;;;;;14.64;100.00;101469.91;10581296;28;20108;-81
2024/01/21 21:03:48;;;;;;;17.00;5.93;;;;;;;14.77;100.00;101477.13;10567572;28;20050;-80
2024/01/21 21:09:12;;;;;;;23.95;5.72;;;;;;;14.94;100.00;101475.56;10546233;28;20134;-79
2024/01/21 21:14:34;;;;;;;13.13;4.95;;;;;;;15.02;100.00;101478.28;10553642;28;20158;-79
2024/01/21 21:19:57;;;;;;;10.75;4.57;;;;;;;15.04;100.00;101469.44;10581399;28;20047;-80
2024/01/21 21:25:21;;;;;;;22.00;5.95;;;;;;;15.15;100.00;101461.56;10566566;27;20094;-78
2024/01/21 21:30:44;;;;;;;18.67;5.70;;;;;;;15.15;100.00;101474.84;10556220;28;20100;-79
2024/01/21 21:36:07;;;;;;;15.73;4.65;;;;;;;15.24;100.00;101471.34;10580411;28;20112;-79
2024/01/21 21:41:31;;;;;;;14.52;5.10;;;;;;;15.22;100.00;101470.47;10607610;27;20040;-80
2024/01/21 21:46:53;;;;;;;17.73;4.88;;;;;;;15.25;100.00;101465.16;10532110;28;20104;-79
2024/01/21 21:52:16;;;;;;;25.70;10.75;;;;;;;15.33;100.00;101482.09;10563698;28;20066;-80
2024/01/21 21:57:40;;;;;;;46.30;15.65;;;;;;;15.39;100.00;101490.09;10564616;28;20112;-79
2024/01/21 22:03:03;;;;;;;13.48;4.70;;;;;;;15.32;100.00;101491.84;10577571;28;20048;-79
2024/01/21 22:08:25;;;;;;;15.18;4.90;;;;;;;15.28;100.00;101487.38;10592757;27;20105;-80
2024/01/21 22:13:49;;;;;;;11.38;3.58;;;;;;;15.30;100.00;101480.28;10565143;28;20503;-80
2024/01/21 22:19:12;;;;;;;13.07;3.47;;;;;;;15.34;100.00;101481.22;10591788;27;20054;-80
2024/01/21 22:24:34;;;;;;;17.08;3.92;;;;;;;15.18;100.00;101489.94;10607458;27;20047;-79
2024/01/21 22:29:58;;;;;;;21.38;4.50;;;;;;;15.17;100.00;101502.34;10621324;27;20047;-80
2024/01/21 22:35:20;;;;;;;14.50;3.85;;;;;;;14.73;100.00;101501.91;10586854;27;20089;-79
2024/01/21 22:40:43;;;;;;;14.82;5.18;;;;;;;14.45;100.00;101510.44;10535798;28;20052;-79
2024/01/21 22:46:07;;;;;;;8.65;3.17;;;;;;;14.44;100.00;101498.06;10535640;28;20836;-80
2024/01/21 22:51:29;;;;;;;18.88;5.20;;;;;;;14.51;100.00;101499.88;10544920;28;20077;-80
2024/01/21 22:56:52;;;;;;;17.27;4.57;;;;;;;14.59;100.00;101492.91;10578163;28;20051;-80
2024/01/21 23:02:16;;;;;;;17.83;4.10;;;;;;;14.71;100.00;101503.66;10577944;28;20088;-81
2024/01/21 23:07:39;;;;;;;15.27;4.45;;;;;;;14.78;100.00;101484.25;10559534;28;20059;-81
2024/01/21 23:13:02;;;;;;;10.85;4.38;;;;;;;14.87;100.00;101488.78;10549509;28;20055;-81
2024/01/21 23:18:26;;;;;;;17.77;4.25;;;;;;;14.82;100.00;101494.06;10551946;28;20043;-81
2024/01/21 23:23:48;;;;;;;16.40;4.07;;;;;;;14.70;100.00;101497.44;10549035;28;20050;-80
2024/01/21 23:29:12;;;;;;;18.45;4.35;;;;;;;14.30;100.00;101504.06;10535708;28;20059;-80
2024/01/21 23:34:36;;;;;;;17.60;4.18;;;;;;;14.18;100.00;101506.53;10520712;28;20099;-80
2024/01/21 23:39:59;;;;;;;14.73;3.97;;;;;;;14.02;100.00;101495.72;10537349;28;20545;-80
2024/01/21 23:45:21;;;;;;;15.73;4.25;;;;;;;13.90;100.00;101507.97;10587997;27;20043;-80
2024/01/21 23:50:45;;;;;;;15.85;4.35;;;;;;;14.04;100.00;101510.81;10561711;28;20054;-81
2024/01/21 23:56:08;;;;;;;19.85;4.50;;;;;;;14.12;100.00;101506.47;10603599;27;20046;-81
